sensor_id;sensor_type;location;lat;lon;timestamp;P1;durP1;ratioP1;P2;durP2;ratioP2
68870;SDS011;55906;52.278;6.808;2024-02-26T00:01:44;14.18;;;9.93;;
68870;SDS011;55906;52.278;6.808;2024-02-26T00:04:11;9.55;;;8.25;;
68870;SDS011;55906;52.278;6.808;2024-02-26T00:06:38;10.53;;;8.20;;
68870;SDS011;55906;52.278;6.808;2024-02-26T00:09:06;10.15;;;7.43;;
68870;SDS011;55906;52.278;6.808;2024-02-26T00:11:33;8.80;;;7.13;;
68870;SDS011;55906;52.278;6.808;2024-02-26T00:14:03;9.73;;;8.17;;
68870;SDS011;55906;52.278;6.808;2024-02-26T00:16:30;9.90;;;8.23;;
68870;SDS011;55906;52.278;6.808;2024-02-26T00:18:57;9.30;;;7.53;;
68870;SDS011;55906;52.278;6.808;2024-02-26T00:21:23;9.73;;;8.07;;
68870;SDS011;55906;52.278;6.808;2024-02-26T00:23:50;8.60;;;7.32;;
68870;SDS011;55906;52.278;6.808;2024-02-26T00:26:17;9.65;;;7.40;;
68870;SDS011;55906;52.278;6.808;2024-02-26T00:28:43;9.90;;;6.93;;
68870;SDS011;55906;52.278;6.808;2024-02-26T00:31:10;8.10;;;6.33;;
68870;SDS011;55906;52.278;6.808;2024-02-26T00:33:37;9.68;;;7.25;;
68870;SDS011;55906;52.278;6.808;2024-02-26T00:36:04;8.17;;;6.37;;
68870;SDS011;55906;52.278;6.808;2024-02-26T00:38:31;8.18;;;6.50;;
68870;SDS011;55906;52.278;6.808;2024-02-26T00:40:58;7.95;;;6.47;;
68870;SDS011;55906;52.278;6.808;2024-02-26T00:43:25;8.48;;;6.30;;
68870;SDS011;55906;52.278;6.808;2024-02-26T00:45:51;7.85;;;6.30;;
68870;SDS011;55906;52.278;6.808;2024-02-26T00:48:19;8.85;;;6.75;;
68870;SDS011;55906;52.278;6.808;2024-02-26T00:50:46;8.55;;;7.07;;
68870;SDS011;55906;52.278;6.808;2024-02-26T00:53:12;8.70;;;6.27;;
68870;SDS011;55906;52.278;6.808;2024-02-26T00:55:39;7.68;;;6.40;;
68870;SDS011;55906;52.278;6.808;2024-02-26T00:58:06;8.93;;;7.13;;
68870;SDS011;55906;52.278;6.808;2024-02-26T01:00:33;11.30;;;8.33;;
68870;SDS011;55906;52.278;6.808;2024-02-26T01:02:59;8.38;;;6.82;;
68870;SDS011;55906;52.278;6.808;2024-02-26T01:05:27;8.18;;;6.72;;
68870;SDS011;55906;52.278;6.808;2024-02-26T01:07:54;9.80;;;7.57;;
68870;SDS011;55906;52.278;6.808;2024-02-26T01:10:21;9.68;;;7.45;;
68870;SDS011;55906;52.278;6.808;2024-02-26T01:12:47;9.80;;;7.38;;
68870;SDS011;55906;52.278;6.808;2024-02-26T01:15:14;7.63;;;6.22;;
68870;SDS011;55906;52.278;6.808;2024-02-26T01:17:41;7.33;;;6.50;;
68870;SDS011;55906;52.278;6.808;2024-02-26T01:20:07;8.52;;;7.00;;
68870;SDS011;55906;52.278;6.808;2024-02-26T01:22:36;7.82;;;6.28;;
68870;SDS011;55906;52.278;6.808;2024-02-26T01:25:03;8.70;;;7.43;;
68870;SDS011;55906;52.278;6.808;2024-02-26T01:27:31;8.38;;;6.18;;
68870;SDS011;55906;52.278;6.808;2024-02-26T01:29:57;8.35;;;6.82;;
68870;SDS011;55906;52.278;6.808;2024-02-26T01:32:24;9.27;;;7.35;;
68870;SDS011;55906;52.278;6.808;2024-02-26T01:34:51;7.50;;;6.68;;
68870;SDS011;55906;52.278;6.808;2024-02-26T01:37:17;9.60;;;7.00;;
68870;SDS011;55906;52.278;6.808;2024-02-26T01:39:45;8.82;;;6.53;;
68870;SDS011;55906;52.278;6.808;2024-02-26T01:42:12;8.60;;;6.93;;
68870;SDS011;55906;52.278;6.808;2024-02-26T01:44:38;10.25;;;7.80;;
68870;SDS011;55906;52.278;6.808;2024-02-26T01:47:05;9.98;;;7.00;;
68870;SDS011;55906;52.278;6.808;2024-02-26T01:49:36;8.23;;;6.57;;
68870;SDS011;55906;52.278;6.808;2024-02-26T01:52:04;13.60;;;8.70;;
68870;SDS011;55906;52.278;6.808;2024-02-26T01:54:33;10.63;;;7.35;;
68870;SDS011;55906;52.278;6.808;2024-02-26T01:57:04;8.77;;;7.18;;
68870;SDS011;55906;52.278;6.808;2024-02-26T01:59:32;8.02;;;6.47;;
68870;SDS011;55906;52.278;6.808;2024-02-26T02:02:01;8.82;;;6.53;;
68870;SDS011;55906;52.278;6.808;2024-02-26T02:04:31;10.68;;;7.65;;
68870;SDS011;55906;52.278;6.808;2024-02-26T02:06:58;8.70;;;6.63;;
68870;SDS011;55906;52.278;6.808;2024-02-26T02:09:26;8.73;;;7.13;;
68870;SDS011;55906;52.278;6.808;2024-02-26T02:11:53;8.70;;;7.22;;
68870;SDS011;55906;52.278;6.808;2024-02-26T02:14:22;8.43;;;6.60;;
68870;SDS011;55906;52.278;6.808;2024-02-26T02:16:49;9.48;;;7.15;;
68870;SDS011;55906;52.278;6.808;2024-02-26T02:19:15;9.05;;;6.97;;
68870;SDS011;55906;52.278;6.808;2024-02-26T02:21:44;9.38;;;7.00;;
68870;SDS011;55906;52.278;6.808;2024-02-26T02:24:10;8.35;;;6.97;;
68870;SDS011;55906;52.278;6.808;2024-02-26T02:26:37;9.50;;;6.90;;
68870;SDS011;55906;52.278;6.808;2024-02-26T02:29:04;7.93;;;6.10;;
68870;SDS011;55906;52.278;6.808;2024-02-26T02:31:34;8.13;;;6.23;;
68870;SDS011;55906;52.278;6.808;2024-02-26T02:34:01;8.13;;;6.22;;
68870;SDS011;55906;52.278;6.808;2024-02-26T02:36:28;8.80;;;5.75;;
68870;SDS011;55906;52.278;6.808;2024-02-26T02:38:56;7.70;;;6.23;;
68870;SDS011;55906;52.278;6.808;2024-02-26T02:41:22;7.25;;;5.78;;
68870;SDS011;55906;52.278;6.808;2024-02-26T02:43:49;7.28;;;6.18;;
68870;SDS011;55906;52.278;6.808;2024-02-26T02:46:16;7.05;;;5.72;;
68870;SDS011;55906;52.278;6.808;2024-02-26T02:48:42;9.25;;;6.75;;
68870;SDS011;55906;52.278;6.808;2024-02-26T02:51:09;7.43;;;5.90;;
68870;SDS011;55906;52.278;6.808;2024-02-26T02:53:36;7.70;;;5.78;;
68870;SDS011;55906;52.278;6.808;2024-02-26T02:56:05;8.77;;;6.03;;
68870;SDS011;55906;52.278;6.808;2024-02-26T02:58:32;7.25;;;5.70;;
68870;SDS011;55906;52.278;6.808;2024-02-26T03:00:59;7.63;;;5.82;;
68870;SDS011;55906;52.278;6.808;2024-02-26T03:03:26;8.33;;;5.73;;
68870;SDS011;55906;52.278;6.808;2024-02-26T03:05:53;7.57;;;6.25;;
68870;SDS011;55906;52.278;6.808;2024-02-26T03:08:20;7.70;;;5.88;;
68870;SDS011;55906;52.278;6.808;2024-02-26T03:10:47;8.43;;;6.38;;
68870;SDS011;55906;52.278;6.808;2024-02-26T03:13:15;8.40;;;6.45;;
68870;SDS011;55906;52.278;6.808;2024-02-26T03:15:42;8.23;;;6.78;;
68870;SDS011;55906;52.278;6.808;2024-02-26T03:18:08;9.38;;;6.95;;
68870;SDS011;55906;52.278;6.808;2024-02-26T03:20:35;8.17;;;6.03;;
68870;SDS011;55906;52.278;6.808;2024-02-26T03:23:02;9.32;;;7.57;;
68870;SDS011;55906;52.278;6.808;2024-02-26T03:25:29;7.70;;;6.30;;
68870;SDS011;55906;52.278;6.808;2024-02-26T03:27:56;7.83;;;6.33;;
68870;SDS011;55906;52.278;6.808;2024-02-26T03:30:24;7.97;;;6.07;;
68870;SDS011;55906;52.278;6.808;2024-02-26T03:32:51;7.65;;;6.00;;
68870;SDS011;55906;52.278;6.808;2024-02-26T03:35:17;6.65;;;5.50;;
68870;SDS011;55906;52.278;6.808;2024-02-26T03:37:45;6.97;;;5.90;;
68870;SDS011;55906;52.278;6.808;2024-02-26T03:40:13;7.95;;;6.25;;
68870;SDS011;55906;52.278;6.808;2024-02-26T03:42:40;7.10;;;5.85;;
68870;SDS011;55906;52.278;6.808;2024-02-26T03:45:07;7.60;;;6.47;;
68870;SDS011;55906;52.278;6.808;2024-02-26T03:47:35;7.93;;;6.43;;
68870;SDS011;55906;52.278;6.808;2024-02-26T03:50:04;8.93;;;6.95;;
68870;SDS011;55906;52.278;6.808;2024-02-26T03:52:31;8.13;;;7.07;;
68870;SDS011;55906;52.278;6.808;2024-02-26T03:54:59;10.02;;;7.18;;
68870;SDS011;55906;52.278;6.808;2024-02-26T03:57:25;9.30;;;7.22;;
68870;SDS011;55906;52.278;6.808;2024-02-26T03:59:52;11.05;;;9.15;;
68870;SDS011;55906;52.278;6.808;2024-02-26T04:02:19;9.93;;;7.63;;
68870;SDS011;55906;52.278;6.808;2024-02-26T04:04:47;10.00;;;7.88;;
68870;SDS011;55906;52.278;6.808;2024-02-26T04:07:13;12.63;;;8.70;;
68870;SDS011;55906;52.278;6.808;2024-02-26T04:09:40;12.37;;;8.87;;
68870;SDS011;55906;52.278;6.808;2024-02-26T04:12:07;12.10;;;8.35;;
68870;SDS011;55906;52.278;6.808;2024-02-26T04:14:34;10.18;;;7.72;;
68870;SDS011;55906;52.278;6.808;2024-02-26T04:17:01;10.03;;;8.10;;
68870;SDS011;55906;52.278;6.808;2024-02-26T04:19:28;10.15;;;7.85;;
68870;SDS011;55906;52.278;6.808;2024-02-26T04:21:56;11.93;;;8.73;;
68870;SDS011;55906;52.278;6.808;2024-02-26T04:24:23;11.52;;;8.55;;
68870;SDS011;55906;52.278;6.808;2024-02-26T04:26:50;10.48;;;8.43;;
68870;SDS011;55906;52.278;6.808;2024-02-26T04:29:16;10.15;;;7.68;;
68870;SDS011;55906;52.278;6.808;2024-02-26T04:31:43;13.38;;;8.70;;
68870;SDS011;55906;52.278;6.808;2024-02-26T04:34:11;10.77;;;8.00;;
68870;SDS011;55906;52.278;6.808;2024-02-26T04:36:37;12.85;;;8.55;;
68870;SDS011;55906;52.278;6.808;2024-02-26T04:39:05;9.45;;;7.25;;
68870;SDS011;55906;52.278;6.808;2024-02-26T04:41:32;11.27;;;8.40;;
68870;SDS011;55906;52.278;6.808;2024-02-26T04:43:59;9.88;;;7.97;;
68870;SDS011;55906;52.278;6.808;2024-02-26T04:46:25;8.75;;;7.50;;
68870;SDS011;55906;52.278;6.808;2024-02-26T04:48:53;10.85;;;7.45;;
68870;SDS011;55906;52.278;6.808;2024-02-26T04:51:20;9.98;;;7.82;;
68870;SDS011;55906;52.278;6.808;2024-02-26T04:53:47;11.27;;;7.90;;
68870;SDS011;55906;52.278;6.808;2024-02-26T04:56:15;9.57;;;7.20;;
68870;SDS011;55906;52.278;6.808;2024-02-26T04:58:41;9.63;;;6.57;;
68870;SDS011;55906;52.278;6.808;2024-02-26T05:01:08;9.50;;;6.75;;
68870;SDS011;55906;52.278;6.808;2024-02-26T05:03:35;10.43;;;7.25;;
68870;SDS011;55906;52.278;6.808;2024-02-26T05:06:02;10.07;;;7.40;;
68870;SDS011;55906;52.278;6.808;2024-02-26T05:08:30;9.05;;;7.00;;
68870;SDS011;55906;52.278;6.808;2024-02-26T05:10:58;10.52;;;8.02;;
68870;SDS011;55906;52.278;6.808;2024-02-26T05:13:26;9.15;;;7.05;;
68870;SDS011;55906;52.278;6.808;2024-02-26T05:15:53;10.48;;;7.47;;
68870;SDS011;55906;52.278;6.808;2024-02-26T05:18:20;9.20;;;7.22;;
68870;SDS011;55906;52.278;6.808;2024-02-26T05:20:47;8.75;;;6.63;;
68870;SDS011;55906;52.278;6.808;2024-02-26T05:23:14;8.63;;;6.93;;
68870;SDS011;55906;52.278;6.808;2024-02-26T05:25:41;8.18;;;6.85;;
68870;SDS011;55906;52.278;6.808;2024-02-26T05:28:07;10.82;;;8.20;;
68870;SDS011;55906;52.278;6.808;2024-02-26T05:30:36;9.00;;;7.23;;
68870;SDS011;55906;52.278;6.808;2024-02-26T05:33:05;9.52;;;7.43;;
68870;SDS011;55906;52.278;6.808;2024-02-26T05:35:31;10.15;;;7.65;;
68870;SDS011;55906;52.278;6.808;2024-02-26T05:37:58;11.07;;;7.60;;
68870;SDS011;55906;52.278;6.808;2024-02-26T05:40:25;9.50;;;7.63;;
68870;SDS011;55906;52.278;6.808;2024-02-26T05:42:51;9.73;;;7.55;;
68870;SDS011;55906;52.278;6.808;2024-02-26T05:45:18;11.48;;;9.20;;
68870;SDS011;55906;52.278;6.808;2024-02-26T05:47:46;11.30;;;8.80;;
68870;SDS011;55906;52.278;6.808;2024-02-26T05:50:12;10.40;;;7.25;;
68870;SDS011;55906;52.278;6.808;2024-02-26T05:52:40;8.98;;;7.05;;
68870;SDS011;55906;52.278;6.808;2024-02-26T05:55:07;9.40;;;7.97;;
68870;SDS011;55906;52.278;6.808;2024-02-26T05:57:35;10.88;;;8.15;;
68870;SDS011;55906;52.278;6.808;2024-02-26T06:00:02;11.23;;;8.75;;
68870;SDS011;55906;52.278;6.808;2024-02-26T06:02:29;11.10;;;7.70;;
68870;SDS011;55906;52.278;6.808;2024-02-26T06:04:57;12.15;;;8.52;;
68870;SDS011;55906;52.278;6.808;2024-02-26T06:07:24;10.38;;;8.65;;
68870;SDS011;55906;52.278;6.808;2024-02-26T06:09:51;11.75;;;8.57;;
68870;SDS011;55906;52.278;6.808;2024-02-26T06:12:17;9.60;;;6.97;;
68870;SDS011;55906;52.278;6.808;2024-02-26T06:14:44;11.57;;;8.80;;
68870;SDS011;55906;52.278;6.808;2024-02-26T06:17:11;9.63;;;7.57;;
68870;SDS011;55906;52.278;6.808;2024-02-26T06:19:38;13.00;;;8.70;;
68870;SDS011;55906;52.278;6.808;2024-02-26T06:22:06;9.32;;;7.30;;
68870;SDS011;55906;52.278;6.808;2024-02-26T06:24:32;9.43;;;7.35;;
68870;SDS011;55906;52.278;6.808;2024-02-26T06:27:00;9.23;;;6.75;;
68870;SDS011;55906;52.278;6.808;2024-02-26T06:29:27;11.65;;;8.25;;
68870;SDS011;55906;52.278;6.808;2024-02-26T06:31:53;11.30;;;9.23;;
68870;SDS011;55906;52.278;6.808;2024-02-26T06:34:20;10.27;;;8.27;;
68870;SDS011;55906;52.278;6.808;2024-02-26T06:36:47;10.10;;;7.63;;
68870;SDS011;55906;52.278;6.808;2024-02-26T06:39:15;10.57;;;8.02;;
68870;SDS011;55906;52.278;6.808;2024-02-26T06:41:43;12.80;;;9.07;;
68870;SDS011;55906;52.278;6.808;2024-02-26T06:44:11;11.20;;;8.73;;
68870;SDS011;55906;52.278;6.808;2024-02-26T06:46:39;12.23;;;8.73;;
68870;SDS011;55906;52.278;6.808;2024-02-26T06:49:05;12.30;;;9.10;;
68870;SDS011;55906;52.278;6.808;2024-02-26T06:51:32;10.43;;;8.05;;
68870;SDS011;55906;52.278;6.808;2024-02-26T06:53:59;13.88;;;8.40;;
68870;SDS011;55906;52.278;6.808;2024-02-26T06:56:27;11.63;;;8.27;;
68870;SDS011;55906;52.278;6.808;2024-02-26T06:58:53;12.95;;;9.60;;
68870;SDS011;55906;52.278;6.808;2024-02-26T07:01:20;12.80;;;9.00;;
68870;SDS011;55906;52.278;6.808;2024-02-26T07:03:47;13.88;;;9.95;;
68870;SDS011;55906;52.278;6.808;2024-02-26T07:06:14;12.63;;;9.50;;
68870;SDS011;55906;52.278;6.808;2024-02-26T07:08:41;14.27;;;9.90;;
68870;SDS011;55906;52.278;6.808;2024-02-26T07:11:08;13.38;;;9.27;;
68870;SDS011;55906;52.278;6.808;2024-02-26T07:13:36;13.25;;;9.68;;
68870;SDS011;55906;52.278;6.808;2024-02-26T07:16:03;13.93;;;10.18;;
68870;SDS011;55906;52.278;6.808;2024-02-26T07:18:30;16.33;;;10.60;;
68870;SDS011;55906;52.278;6.808;2024-02-26T07:20:57;16.20;;;10.23;;
68870;SDS011;55906;52.278;6.808;2024-02-26T07:23:23;15.75;;;10.98;;
68870;SDS011;55906;52.278;6.808;2024-02-26T07:25:50;15.53;;;10.87;;
68870;SDS011;55906;52.278;6.808;2024-02-26T07:28:18;15.27;;;11.50;;
68870;SDS011;55906;52.278;6.808;2024-02-26T07:30:46;16.80;;;11.13;;
68870;SDS011;55906;52.278;6.808;2024-02-26T07:33:13;16.17;;;11.03;;
68870;SDS011;55906;52.278;6.808;2024-02-26T07:35:39;16.00;;;10.57;;
68870;SDS011;55906;52.278;6.808;2024-02-26T07:38:06;15.50;;;11.73;;
68870;SDS011;55906;52.278;6.808;2024-02-26T07:40:33;15.95;;;11.35;;
68870;SDS011;55906;52.278;6.808;2024-02-26T07:42:59;19.70;;;12.40;;
68870;SDS011;55906;52.278;6.808;2024-02-26T07:45:26;16.52;;;12.88;;
68870;SDS011;55906;52.278;6.808;2024-02-26T07:47:54;18.30;;;12.07;;
68870;SDS011;55906;52.278;6.808;2024-02-26T07:50:21;15.93;;;10.77;;
68870;SDS011;55906;52.278;6.808;2024-02-26T07:52:47;14.77;;;10.23;;
68870;SDS011;55906;52.278;6.808;2024-02-26T07:55:16;17.75;;;10.90;;
68870;SDS011;55906;52.278;6.808;2024-02-26T07:57:44;17.67;;;10.77;;
68870;SDS011;55906;52.278;6.808;2024-02-26T08:00:11;16.20;;;11.40;;
68870;SDS011;55906;52.278;6.808;2024-02-26T08:02:41;17.63;;;11.18;;
68870;SDS011;55906;52.278;6.808;2024-02-26T08:05:09;17.73;;;11.27;;
68870;SDS011;55906;52.278;6.808;2024-02-26T08:07:36;14.88;;;10.50;;
68870;SDS011;55906;52.278;6.808;2024-02-26T08:10:03;15.70;;;10.40;;
68870;SDS011;55906;52.278;6.808;2024-02-26T08:12:30;17.00;;;10.90;;
68870;SDS011;55906;52.278;6.808;2024-02-26T08:14:57;18.27;;;10.63;;
68870;SDS011;55906;52.278;6.808;2024-02-26T08:17:24;15.90;;;10.63;;
68870;SDS011;55906;52.278;6.808;2024-02-26T08:19:52;16.48;;;10.50;;
68870;SDS011;55906;52.278;6.808;2024-02-26T08:22:20;16.17;;;11.07;;
68870;SDS011;55906;52.278;6.808;2024-02-26T08:24:46;15.52;;;10.93;;
68870;SDS011;55906;52.278;6.808;2024-02-26T08:27:13;16.80;;;11.50;;
68870;SDS011;55906;52.278;6.808;2024-02-26T08:29:40;14.60;;;10.23;;
68870;SDS011;55906;52.278;6.808;2024-02-26T08:32:06;14.50;;;9.82;;
68870;SDS011;55906;52.278;6.808;2024-02-26T08:34:33;15.52;;;10.30;;
68870;SDS011;55906;52.278;6.808;2024-02-26T08:37:00;15.38;;;10.95;;
68870;SDS011;55906;52.278;6.808;2024-02-26T08:39:28;15.40;;;10.47;;
68870;SDS011;55906;52.278;6.808;2024-02-26T08:41:54;16.75;;;11.45;;
68870;SDS011;55906;52.278;6.808;2024-02-26T08:44:21;16.88;;;10.60;;
68870;SDS011;55906;52.278;6.808;2024-02-26T08:46:48;14.47;;;10.50;;
68870;SDS011;55906;52.278;6.808;2024-02-26T08:49:15;14.93;;;10.32;;
68870;SDS011;55906;52.278;6.808;2024-02-26T08:51:42;15.65;;;10.45;;
68870;SDS011;55906;52.278;6.808;2024-02-26T08:54:09;15.73;;;10.38;;
68870;SDS011;55906;52.278;6.808;2024-02-26T08:56:37;14.05;;;9.52;;
68870;SDS011;55906;52.278;6.808;2024-02-26T08:59:03;14.35;;;9.48;;
68870;SDS011;55906;52.278;6.808;2024-02-26T09:03:57;16.80;;;10.77;;
68870;SDS011;55906;52.278;6.808;2024-02-26T09:06:24;16.90;;;10.07;;
68870;SDS011;55906;52.278;6.808;2024-02-26T09:08:51;16.13;;;9.90;;
68870;SDS011;55906;52.278;6.808;2024-02-26T09:11:18;17.77;;;10.63;;
68870;SDS011;55906;52.278;6.808;2024-02-26T09:13:46;18.00;;;10.52;;
68870;SDS011;55906;52.278;6.808;2024-02-26T09:16:12;18.40;;;11.20;;
68870;SDS011;55906;52.278;6.808;2024-02-26T09:18:39;17.88;;;10.57;;
68870;SDS011;55906;52.278;6.808;2024-02-26T09:21:06;19.75;;;11.57;;
68870;SDS011;55906;52.278;6.808;2024-02-26T09:23:33;19.83;;;11.20;;
68870;SDS011;55906;52.278;6.808;2024-02-26T09:26:00;19.33;;;11.43;;
68870;SDS011;55906;52.278;6.808;2024-02-26T09:28:27;20.97;;;12.83;;
68870;SDS011;55906;52.278;6.808;2024-02-26T09:30:58;21.55;;;12.32;;
68870;SDS011;55906;52.278;6.808;2024-02-26T09:33:24;20.77;;;12.65;;
68870;SDS011;55906;52.278;6.808;2024-02-26T09:35:51;19.45;;;11.55;;
68870;SDS011;55906;52.278;6.808;2024-02-26T09:38:18;20.17;;;12.07;;
68870;SDS011;55906;52.278;6.808;2024-02-26T09:40:44;19.77;;;11.55;;
68870;SDS011;55906;52.278;6.808;2024-02-26T09:43:13;23.60;;;13.23;;
68870;SDS011;55906;52.278;6.808;2024-02-26T09:45:41;20.15;;;12.77;;
68870;SDS011;55906;52.278;6.808;2024-02-26T09:48:10;19.88;;;12.27;;
68870;SDS011;55906;52.278;6.808;2024-02-26T09:50:38;22.30;;;12.50;;
68870;SDS011;55906;52.278;6.808;2024-02-26T09:53:07;24.40;;;13.63;;
68870;SDS011;55906;52.278;6.808;2024-02-26T09:55:36;24.60;;;14.57;;
68870;SDS011;55906;52.278;6.808;2024-02-26T09:58:03;25.27;;;14.40;;
68870;SDS011;55906;52.278;6.808;2024-02-26T10:00:32;26.17;;;14.95;;
68870;SDS011;55906;52.278;6.808;2024-02-26T10:03:04;24.60;;;14.18;;
68870;SDS011;55906;52.278;6.808;2024-02-26T10:05:32;25.30;;;15.17;;
68870;SDS011;55906;52.278;6.808;2024-02-26T10:08:00;23.17;;;14.15;;
68870;SDS011;55906;52.278;6.808;2024-02-26T10:10:28;26.65;;;14.82;;
68870;SDS011;55906;52.278;6.808;2024-02-26T10:12:56;25.95;;;14.18;;
68870;SDS011;55906;52.278;6.808;2024-02-26T10:15:23;26.37;;;15.23;;
68870;SDS011;55906;52.278;6.808;2024-02-26T10:17:50;25.00;;;14.98;;
68870;SDS011;55906;52.278;6.808;2024-02-26T10:20:17;26.42;;;16.35;;
68870;SDS011;55906;52.278;6.808;2024-02-26T10:22:48;23.13;;;14.52;;
68870;SDS011;55906;52.278;6.808;2024-02-26T10:25:15;24.77;;;14.23;;
68870;SDS011;55906;52.278;6.808;2024-02-26T10:27:42;23.58;;;14.02;;
68870;SDS011;55906;52.278;6.808;2024-02-26T10:30:16;22.75;;;14.10;;
68870;SDS011;55906;52.278;6.808;2024-02-26T10:32:44;24.75;;;14.27;;
68870;SDS011;55906;52.278;6.808;2024-02-26T10:35:12;25.40;;;14.03;;
68870;SDS011;55906;52.278;6.808;2024-02-26T10:37:39;22.23;;;13.45;;
68870;SDS011;55906;52.278;6.808;2024-02-26T10:40:08;23.48;;;14.05;;
68870;SDS011;55906;52.278;6.808;2024-02-26T10:42:37;21.50;;;12.18;;
68870;SDS011;55906;52.278;6.808;2024-02-26T10:45:04;21.37;;;12.63;;
68870;SDS011;55906;52.278;6.808;2024-02-26T10:47:31;24.02;;;13.48;;
68870;SDS011;55906;52.278;6.808;2024-02-26T10:49:59;20.95;;;12.68;;
68870;SDS011;55906;52.278;6.808;2024-02-26T10:52:26;17.73;;;10.43;;
68870;SDS011;55906;52.278;6.808;2024-02-26T10:54:53;18.80;;;11.43;;
68870;SDS011;55906;52.278;6.808;2024-02-26T10:57:24;18.63;;;10.68;;
68870;SDS011;55906;52.278;6.808;2024-02-26T10:59:51;18.08;;;10.20;;
68870;SDS011;55906;52.278;6.808;2024-02-26T11:02:20;14.77;;;10.20;;
68870;SDS011;55906;52.278;6.808;2024-02-26T11:04:47;15.65;;;9.68;;
68870;SDS011;55906;52.278;6.808;2024-02-26T11:07:15;16.50;;;10.05;;
68870;SDS011;55906;52.278;6.808;2024-02-26T11:09:42;17.13;;;10.00;;
68870;SDS011;55906;52.278;6.808;2024-02-26T11:12:17;14.43;;;9.03;;
68870;SDS011;55906;52.278;6.808;2024-02-26T11:14:46;15.48;;;9.82;;
68870;SDS011;55906;52.278;6.808;2024-02-26T11:17:14;16.02;;;9.55;;
68870;SDS011;55906;52.278;6.808;2024-02-26T11:19:41;13.70;;;8.38;;
68870;SDS011;55906;52.278;6.808;2024-02-26T11:22:11;14.53;;;8.80;;
68870;SDS011;55906;52.278;6.808;2024-02-26T11:24:37;13.30;;;8.80;;
68870;SDS011;55906;52.278;6.808;2024-02-26T11:27:06;13.60;;;8.45;;
68870;SDS011;55906;52.278;6.808;2024-02-26T11:29:37;14.85;;;9.30;;
68870;SDS011;55906;52.278;6.808;2024-02-26T11:32:09;14.23;;;9.03;;
68870;SDS011;55906;52.278;6.808;2024-02-26T11:34:36;12.45;;;9.02;;
68870;SDS011;55906;52.278;6.808;2024-02-26T11:37:10;12.55;;;8.38;;
68870;SDS011;55906;52.278;6.808;2024-02-26T11:39:37;13.68;;;9.05;;
68870;SDS011;55906;52.278;6.808;2024-02-26T11:42:06;14.27;;;9.13;;
68870;SDS011;55906;52.278;6.808;2024-02-26T11:44:34;13.23;;;8.40;;
68870;SDS011;55906;52.278;6.808;2024-02-26T11:47:10;11.85;;;8.30;;
68870;SDS011;55906;52.278;6.808;2024-02-26T11:49:38;19.10;;;9.07;;
68870;SDS011;55906;52.278;6.808;2024-02-26T11:52:05;14.87;;;9.60;;
68870;SDS011;55906;52.278;6.808;2024-02-26T11:54:40;13.10;;;8.55;;
68870;SDS011;55906;52.278;6.808;2024-02-26T11:57:19;13.65;;;8.73;;
68870;SDS011;55906;52.278;6.808;2024-02-26T11:59:47;13.32;;;8.73;;
68870;SDS011;55906;52.278;6.808;2024-02-26T12:05:10;11.73;;;8.35;;
68870;SDS011;55906;52.278;6.808;2024-02-26T12:07:39;14.68;;;9.20;;
68870;SDS011;55906;52.278;6.808;2024-02-26T12:10:14;12.68;;;8.25;;
68870;SDS011;55906;52.278;6.808;2024-02-26T12:12:54;11.93;;;7.93;;
68870;SDS011;55906;52.278;6.808;2024-02-26T12:15:26;13.52;;;9.20;;
68870;SDS011;55906;52.278;6.808;2024-02-26T12:17:59;10.98;;;7.22;;
68870;SDS011;55906;52.278;6.808;2024-02-26T12:20:27;13.60;;;8.57;;
68870;SDS011;55906;52.278;6.808;2024-02-26T12:22:54;12.73;;;9.20;;
68870;SDS011;55906;52.278;6.808;2024-02-26T12:25:23;10.60;;;8.02;;
68870;SDS011;55906;52.278;6.808;2024-02-26T12:27:50;17.95;;;7.68;;
68870;SDS011;55906;52.278;6.808;2024-02-26T12:30:17;13.33;;;8.30;;
68870;SDS011;55906;52.278;6.808;2024-02-26T12:32:44;13.63;;;8.43;;
68870;SDS011;55906;52.278;6.808;2024-02-26T12:35:12;11.52;;;8.30;;
68870;SDS011;55906;52.278;6.808;2024-02-26T12:37:39;10.50;;;7.47;;
68870;SDS011;55906;52.278;6.808;2024-02-26T12:40:06;11.00;;;8.17;;
68870;SDS011;55906;52.278;6.808;2024-02-26T12:42:36;10.15;;;6.97;;
68870;SDS011;55906;52.278;6.808;2024-02-26T12:45:05;11.38;;;6.75;;
68870;SDS011;55906;52.278;6.808;2024-02-26T12:47:35;9.95;;;7.07;;
68870;SDS011;55906;52.278;6.808;2024-02-26T12:50:03;10.93;;;6.87;;
68870;SDS011;55906;52.278;6.808;2024-02-26T12:52:32;9.60;;;6.82;;
68870;SDS011;55906;52.278;6.808;2024-02-26T12:54:59;10.20;;;7.10;;
68870;SDS011;55906;52.278;6.808;2024-02-26T12:57:28;12.73;;;8.57;;
68870;SDS011;55906;52.278;6.808;2024-02-26T12:59:56;14.57;;;8.13;;
68870;SDS011;55906;52.278;6.808;2024-02-26T13:02:24;12.05;;;8.18;;
68870;SDS011;55906;52.278;6.808;2024-02-26T13:04:51;11.00;;;7.78;;
68870;SDS011;55906;52.278;6.808;2024-02-26T13:07:19;10.90;;;7.80;;
68870;SDS011;55906;52.278;6.808;2024-02-26T13:09:48;12.93;;;7.97;;
68870;SDS011;55906;52.278;6.808;2024-02-26T13:12:15;10.38;;;7.13;;
68870;SDS011;55906;52.278;6.808;2024-02-26T13:14:42;12.40;;;7.93;;
68870;SDS011;55906;52.278;6.808;2024-02-26T13:17:09;12.50;;;8.53;;
68870;SDS011;55906;52.278;6.808;2024-02-26T13:19:36;12.02;;;8.00;;
68870;SDS011;55906;52.278;6.808;2024-02-26T13:22:03;11.60;;;7.82;;
68870;SDS011;55906;52.278;6.808;2024-02-26T13:24:31;11.15;;;7.57;;
68870;SDS011;55906;52.278;6.808;2024-02-26T13:26:59;12.93;;;8.47;;
68870;SDS011;55906;52.278;6.808;2024-02-26T13:29:28;13.57;;;7.95;;
68870;SDS011;55906;52.278;6.808;2024-02-26T13:31:55;11.15;;;7.63;;
68870;SDS011;55906;52.278;6.808;2024-02-26T13:34:23;10.20;;;7.38;;
68870;SDS011;55906;52.278;6.808;2024-02-26T13:36:51;10.55;;;7.68;;
68870;SDS011;55906;52.278;6.808;2024-02-26T13:39:22;10.75;;;7.55;;
68870;SDS011;55906;52.278;6.808;2024-02-26T13:41:53;10.98;;;7.57;;
68870;SDS011;55906;52.278;6.808;2024-02-26T13:44:21;11.20;;;7.22;;
68870;SDS011;55906;52.278;6.808;2024-02-26T13:46:48;11.57;;;7.87;;
68870;SDS011;55906;52.278;6.808;2024-02-26T13:49:15;12.65;;;7.78;;
68870;SDS011;55906;52.278;6.808;2024-02-26T13:51:42;11.02;;;7.65;;
68870;SDS011;55906;52.278;6.808;2024-02-26T13:54:09;11.18;;;7.28;;
68870;SDS011;55906;52.278;6.808;2024-02-26T13:56:35;12.83;;;8.23;;
68870;SDS011;55906;52.278;6.808;2024-02-26T13:59:02;11.45;;;7.78;;
68870;SDS011;55906;52.278;6.808;2024-02-26T14:01:30;10.73;;;7.32;;
68870;SDS011;55906;52.278;6.808;2024-02-26T14:03:58;9.85;;;6.88;;
68870;SDS011;55906;52.278;6.808;2024-02-26T14:06:26;10.80;;;7.40;;
68870;SDS011;55906;52.278;6.808;2024-02-26T14:08:53;11.60;;;8.13;;
68870;SDS011;55906;52.278;6.808;2024-02-26T14:11:20;10.57;;;7.68;;
68870;SDS011;55906;52.278;6.808;2024-02-26T14:13:47;13.13;;;8.05;;
68870;SDS011;55906;52.278;6.808;2024-02-26T14:16:13;12.20;;;8.00;;
68870;SDS011;55906;52.278;6.808;2024-02-26T14:18:41;11.38;;;7.57;;
68870;SDS011;55906;52.278;6.808;2024-02-26T14:21:10;10.43;;;7.43;;
68870;SDS011;55906;52.278;6.808;2024-02-26T14:23:36;11.30;;;7.50;;
68870;SDS011;55906;52.278;6.808;2024-02-26T14:26:03;11.23;;;7.77;;
68870;SDS011;55906;52.278;6.808;2024-02-26T14:28:30;12.32;;;7.75;;
68870;SDS011;55906;52.278;6.808;2024-02-26T14:30:58;12.60;;;8.07;;
68870;SDS011;55906;52.278;6.808;2024-02-26T14:33:24;11.52;;;7.65;;
68870;SDS011;55906;52.278;6.808;2024-02-26T14:35:52;12.53;;;8.40;;
68870;SDS011;55906;52.278;6.808;2024-02-26T14:38:19;11.57;;;7.82;;
68870;SDS011;55906;52.278;6.808;2024-02-26T14:40:46;11.77;;;8.02;;
68870;SDS011;55906;52.278;6.808;2024-02-26T14:43:12;12.48;;;8.85;;